Terminal Aerodrome Forecast
Issued by NWS Pittsburgh, PA

Current Version | Previous Version | Graphics & Text | Print | Product List | Glossary On
Versions: 1 2 3 4 5 6 7 8 9 10 11 12 13 14 15 16 17 18 19 20 21 22 23 24 25 26 27
401
FTUS41 KPBZ 091133
TAFPIT
TAF
KPIT 091133Z 0912/1018 26012G22KT P6SM -SHSN SCT015 OVC025
      TEMPO 0912/0916 BKN015
     FM100000 26008KT P6SM BKN025
     FM101500 26005KT P6SM BKN035=

USA.gov is the U.S. government's official web portal to all federal, state and local government web resources and services.